Atlanta, Georgia
Current Conditions -  °F | °C
As of 1:52 PM on Monday 20 Oct 2014 (Local Time) from KATL Reporting Station
Scattered Clouds Scattered Clouds  
Wind Chill: 21°   Ceiling: Unl
Heat Index: 21°   Visibility: 10mi
Dew Point:   Wind: 10mph
Humidity: 47%   Direction: 230°SW
Pressure: 30.05"   Gusts: NA
Location:  33.75°N, 84.39°W
Report Text: KATL 201752Z 23009KT 10SM FEW040 SCT250 21/09 A3005 RMK AO2 SLP174 T02110094 10217 20106 58025
Loading
Personal Weather Stations






























Interactive Weather Map
Tropical Storm Tracking
New forecast layout! Learn more

10-Day Weather Forecast

Advertisements
Track Severe Weather on mobile